Αρχική σελίδα
METAR-TAF:

METAR-TAF

Αεροδρόμια :

Κίρκενες, Νορβηγία

γεωγραφικό πλάτος: 69-44N, γεωγραφικό μήκος: 029-54E, υψόμετρο: 9 μ

Παρών καιρός

Η αναφορά έγινε 13 λεπτά πριν, στις 03:20 UTC
Άνεμος 5 kt από Ν
Θερμοκρασία 19°C
Υγρασία 56%
Πίεση 1016 hPa
Ορατότητα 10 χλμ και άνω
Δεν υπάρχουν νέφη με βάση κάτω από τα 1500 μ. και δεν υπάρχουν νέφη σωρειτομελανίτες.

METAR: ENKR 230320Z 17005KT CAVOK 19/10 Q1016 RMK WIND 731FT 20005KT

Χρόνος: 05:33 (03:33 UTC)

Πρόγνωση Καιρού

Η αναφορά έγινε 1 ώρα και 33 λεπτά πριν, στις 02:00 UTC
Η πρόγνωση ισχύει από τις 23 στις 03 UTC έως τις 23 στις 12 UTC
Άνεμος 7 kt από Ν
Ορατότητα 10 χλμ και άνω
Δεν υπάρχουν νέφη με βάση κάτω από τα 1500 μ. και δεν υπάρχουν νέφη σωρειτομελανίτες.

TAF: ENKR 230200Z 2303/2312 18007KT CAVOK

Μετεωρολογικές αναφορές και προγνώσεις για περισσότερα από 4000 αεροδρόμια (δελτία METAR και TAF).

Οι διαθέσιμοι σταθμοί απεικονίζονται στο χάρτη με κίτρινες και κόκκινες κουκκίδες.

Μετακινήστε το ποντίκι πάνω από τις κουκκίδες για να δείτε το όνομα του σταθμού.

Στη συνέχεια, κάντε κλικ για να δείτε τις μετεωρολογικές αναφορές και τις προγνώσεις καιρού.

Για να αλλάξετε το χάρτη: κάντε κλικ στα πράσινα κουμπιά με τον μαύρο σταυρό για να ζουμάρετε, στο πράσινο κουμπί με την παύλα για να αφαιρέσετε το ζουμ ή στα πράσινα βέλη για να αντιπαραβάλλετε χάρτες.


METAR-TAF: